createdAt,value
2019-02-25T00:01:34.514Z,84.30
2019-02-25T00:03:10.617Z,85.97
2019-02-25T00:04:46.974Z,85.07
2019-02-25T00:06:23.217Z,82.40
2019-02-25T00:07:59.175Z,75.67
2019-02-25T00:09:35.432Z,86.33
2019-02-25T00:11:11.628Z,84.37
2019-02-25T00:12:47.950Z,83.53
2019-02-25T00:14:24.058Z,88.20
2019-02-25T00:16:00.193Z,79.33
2019-02-25T00:17:38.141Z,86.27
2019-02-25T00:19:14.275Z,84.47
2019-02-25T00:20:50.290Z,83.17
2019-02-25T00:22:26.581Z,87.43
2019-02-25T00:24:02.768Z,89.37
2019-02-25T00:25:38.964Z,83.03
2019-02-25T00:27:15.020Z,82.50
2019-02-25T00:28:51.037Z,90.70
2019-02-25T00:30:27.305Z,85.33
2019-02-25T00:32:03.562Z,89.03
2019-02-25T00:33:39.603Z,86.03
2019-02-25T00:35:15.757Z,83.90
2019-02-25T00:36:51.745Z,78.63
2019-02-25T00:38:28.003Z,87.33
2019-02-25T00:40:05.321Z,84.47
2019-02-25T00:41:41.483Z,82.03
2019-02-25T00:43:17.791Z,80.13
2019-02-25T00:44:53.967Z,91.30
2019-02-25T00:46:30.086Z,84.30
2019-02-25T00:48:06.410Z,84.97
2019-02-25T00:49:42.622Z,84.47
2019-02-25T00:51:18.523Z,82.73
2019-02-25T00:52:54.496Z,85.20
2019-02-25T00:54:30.507Z,85.93
2019-02-25T00:56:06.811Z,80.83
2019-02-25T00:57:44.459Z,83.83
2019-02-25T00:59:20.579Z,78.70
2019-02-25T01:00:56.693Z,84.57
2019-02-25T01:02:32.822Z,92.13
2019-02-25T01:04:10.272Z,88.30
2019-02-25T01:05:46.684Z,96.40
2019-02-25T01:07:22.902Z,91.83
2019-02-25T01:08:59.014Z,85.10
2019-02-25T01:10:35.469Z,80.03
2019-02-25T01:12:11.849Z,84.57
2019-02-25T01:13:47.966Z,83.93
2019-02-25T01:15:24.079Z,85.10
2019-02-25T01:17:00.438Z,82.83
2019-02-25T01:18:36.631Z,76.60
2019-02-25T01:20:16.209Z,84.00
2019-02-25T01:21:52.342Z,86.83
2019-02-25T01:23:28.549Z,81.97
2019-02-25T01:25:06.623Z,80.63
2019-02-25T01:26:42.591Z,77.20
2019-02-25T01:28:18.620Z,72.63
2019-02-25T01:29:54.749Z,69.33
2019-02-25T01:31:30.895Z,75.20
2019-02-25T01:33:07.016Z,78.00
2019-02-25T01:34:43.126Z,74.87
2019-02-25T01:36:19.350Z,72.47
2019-02-25T01:37:55.449Z,79.37
2019-02-25T01:39:31.351Z,76.03
2019-02-25T01:41:07.518Z,85.03
2019-02-25T01:42:43.912Z,76.97
2019-02-25T01:44:19.996Z,79.87
2019-02-25T01:45:56.229Z,72.47
2019-02-25T01:47:32.369Z,76.07
2019-02-25T01:49:08.513Z,72.07
2019-02-25T01:50:44.639Z,72.93
2019-02-25T01:52:20.691Z,71.87
2019-02-25T01:53:56.669Z,69.10
2019-02-25T01:55:34.099Z,67.83
2019-02-25T01:57:10.148Z,69.00
2019-02-25T01:58:46.180Z,67.83
2019-02-25T02:00:22.398Z,67.47
2019-02-25T02:01:58.491Z,71.80
2019-02-25T02:03:34.653Z,68.40
2019-02-25T02:05:11.246Z,69.23
2019-02-25T02:06:47.418Z,75.07
2019-02-25T02:08:23.483Z,70.43
2019-02-25T02:09:59.695Z,67.37
2019-02-25T02:11:35.767Z,71.10
2019-02-25T02:13:14.416Z,64.83
2019-02-25T02:14:49.780Z,66.43
2019-02-25T02:16:25.791Z,63.43
2019-02-25T02:18:01.982Z,70.80
2019-02-25T02:19:38.076Z,72.60
2019-02-25T02:21:14.065Z,62.63
2019-02-25T02:22:50.137Z,66.00
2019-02-25T02:24:26.316Z,67.63
2019-02-25T02:26:02.354Z,63.13
2019-02-25T02:27:38.573Z,64.07
2019-02-25T02:29:14.719Z,64.60
2019-02-25T02:30:50.875Z,62.30
2019-02-25T02:32:26.880Z,56.70
2019-02-25T02:34:02.865Z,64.57
2019-02-25T02:35:38.989Z,63.07
2019-02-25T02:37:15.061Z,65.83
2019-02-25T02:38:51.033Z,60.70
2019-02-25T02:40:27.261Z,64.43
2019-02-25T02:42:18.477Z,62.33
2019-02-25T02:43:54.643Z,59.33
2019-02-25T02:45:53.197Z,64.27
2019-02-25T02:47:33.935Z,60.10
2019-02-25T02:49:09.881Z,62.50
2019-02-25T02:50:45.854Z,64.73
2019-02-25T02:52:21.908Z,64.23
2019-02-25T02:53:57.803Z,58.93
2019-02-25T02:55:33.869Z,64.27
2019-02-25T02:57:09.925Z,63.40
2019-02-25T02:58:45.965Z,65.20
2019-02-25T03:00:22.069Z,66.07
2019-02-25T03:01:57.983Z,62.10
2019-02-25T03:03:33.949Z,61.50
2019-02-25T03:05:13.327Z,60.13
2019-02-25T03:06:49.302Z,62.50
2019-02-25T03:08:25.394Z,55.37
2019-02-25T03:10:01.421Z,59.40
2019-02-25T03:11:37.525Z,55.10
2019-02-25T03:13:13.742Z,58.47
2019-02-25T03:14:49.734Z,51.67
2019-02-25T03:16:25.793Z,52.30
2019-02-25T03:18:01.940Z,55.40
2019-02-25T03:19:37.949Z,56.33
2019-02-25T03:21:14.013Z,54.60
2019-02-25T03:22:50.224Z,57.50
2019-02-25T03:24:26.383Z,54.67
2019-02-25T03:26:02.420Z,56.20
2019-02-25T03:27:38.457Z,56.87
2019-02-25T03:29:14.472Z,55.23
2019-02-25T03:30:50.453Z,59.57
2019-02-25T03:32:26.644Z,58.00
2019-02-25T03:34:02.614Z,56.00
2019-02-25T03:35:38.601Z,54.00
2019-02-25T03:37:14.774Z,57.00
2019-02-25T03:38:50.680Z,58.13
2019-02-25T03:40:27.096Z,52.50
2019-02-25T03:42:03.719Z,53.93
2019-02-25T03:43:39.687Z,59.13
2019-02-25T03:45:18.877Z,57.70
2019-02-25T03:46:54.879Z,55.70
2019-02-25T03:48:31.029Z,49.67
2019-02-25T03:50:08.351Z,49.43
2019-02-25T03:51:44.830Z,52.53
2019-02-25T03:53:21.034Z,55.97
2019-02-25T03:54:57.247Z,51.70
2019-02-25T03:56:33.457Z,55.20
2019-02-25T03:58:09.582Z,50.80
2019-02-25T03:59:45.785Z,51.90
2019-02-25T04:01:22.302Z,51.50
2019-02-25T04:02:58.727Z,54.20
2019-02-25T04:04:35.049Z,46.57
2019-02-25T04:06:11.564Z,48.27
2019-02-25T04:07:47.775Z,51.60
2019-02-25T04:09:24.119Z,46.67
2019-02-25T04:11:00.021Z,48.80
2019-02-25T04:12:36.062Z,49.73
2019-02-25T04:14:13.500Z,50.07
2019-02-25T04:15:49.537Z,52.43
2019-02-25T04:17:25.676Z,55.17
2019-02-25T04:19:03.172Z,52.20
2019-02-25T04:20:40.484Z,47.43
2019-02-25T04:22:16.527Z,52.23
2019-02-25T04:23:52.586Z,53.00
2019-02-25T04:25:28.840Z,50.40
2019-02-25T04:27:04.982Z,51.40
2019-02-25T04:28:41.222Z,51.20
2019-02-25T04:30:17.736Z,53.40
2019-02-25T04:31:54.129Z,51.37
2019-02-25T04:33:30.105Z,51.70
2019-02-25T04:35:09.534Z,55.57
2019-02-25T04:36:45.572Z,49.87
2019-02-25T04:38:21.609Z,51.40
2019-02-25T04:39:57.516Z,49.60
2019-02-25T04:41:34.065Z,47.67
2019-02-25T04:43:10.132Z,50.73
2019-02-25T04:44:46.212Z,51.10
2019-02-25T04:46:22.290Z,41.77
2019-02-25T04:47:58.195Z,52.53
2019-02-25T04:49:34.165Z,47.83
2019-02-25T04:51:10.268Z,52.23
2019-02-25T04:52:46.238Z,46.57
2019-02-25T04:54:22.205Z,50.50
2019-02-25T04:55:58.207Z,47.20
2019-02-25T04:57:34.120Z,43.47
2019-02-25T04:59:10.091Z,48.60
2019-02-25T05:00:46.104Z,45.77
2019-02-25T05:02:22.234Z,46.50
2019-02-25T05:03:58.248Z,49.60
2019-02-25T05:05:34.882Z,49.57
2019-02-25T05:07:10.870Z,45.47
2019-02-25T05:08:46.852Z,45.50
2019-02-25T05:10:22.979Z,49.20
2019-02-25T05:12:00.285Z,50.67
2019-02-25T05:13:36.462Z,49.33
2019-02-25T05:15:15.605Z,44.20
2019-02-25T05:16:51.576Z,50.83
2019-02-25T05:18:27.386Z,42.00
2019-02-25T05:20:03.453Z,45.57
2019-02-25T05:21:39.428Z,40.00
2019-02-25T05:23:15.468Z,45.40
2019-02-25T05:24:51.538Z,42.50
2019-02-25T05:26:27.749Z,44.77
2019-02-25T05:28:05.274Z,44.40
2019-02-25T05:29:41.400Z,45.90
2019-02-25T05:31:17.542Z,47.03
2019-02-25T05:32:53.450Z,43.00
2019-02-25T05:34:29.435Z,44.20
2019-02-25T05:36:05.577Z,45.33
2019-02-25T05:37:41.802Z,40.77
2019-02-25T05:39:17.758Z,47.00
2019-02-25T05:40:53.831Z,45.90
2019-02-25T05:42:29.812Z,43.90
2019-02-25T05:44:08.410Z,45.20
2019-02-25T05:45:43.645Z,40.30
2019-02-25T05:47:21.470Z,47.03
2019-02-25T05:48:57.464Z,42.37
2019-02-25T05:50:33.532Z,45.73
2019-02-25T05:52:09.629Z,45.47
2019-02-25T05:53:45.703Z,40.83
2019-02-25T05:55:21.799Z,37.77
2019-02-25T05:56:57.946Z,40.93
2019-02-25T05:58:34.172Z,41.43
2019-02-25T06:00:21.373Z,40.40
2019-02-25T06:01:58.689Z,43.30
2019-02-25T06:03:34.781Z,43.07
2019-02-25T06:05:10.884Z,39.87
2019-02-25T06:06:46.940Z,39.63
2019-02-25T06:08:23.083Z,41.10
2019-02-25T06:09:59.193Z,48.90
2019-02-25T06:11:35.331Z,43.63
2019-02-25T06:13:11.466Z,41.87
2019-02-25T06:14:47.500Z,43.17
2019-02-25T06:16:23.970Z,45.77
2019-02-25T06:18:01.253Z,42.20
2019-02-25T06:19:37.206Z,42.13
2019-02-25T06:21:13.251Z,44.67
2019-02-25T06:22:49.115Z,44.87
2019-02-25T06:24:25.303Z,42.37
2019-02-25T06:26:01.097Z,39.90
2019-02-25T06:27:36.948Z,41.77
2019-02-25T06:29:12.842Z,38.73
2019-02-25T06:30:48.820Z,41.57
2019-02-25T06:32:24.875Z,37.93
2019-02-25T06:34:00.869Z,38.27
2019-02-25T06:35:36.894Z,40.17
2019-02-25T06:37:12.851Z,39.43
2019-02-25T06:38:49.056Z,43.23
2019-02-25T06:40:25.094Z,49.50
2019-02-25T06:42:01.107Z,40.03
2019-02-25T06:43:37.060Z,49.67
2019-02-25T06:45:37.288Z,40.80
2019-02-25T06:47:13.322Z,43.80
2019-02-25T06:48:49.457Z,42.13
2019-02-25T06:50:26.883Z,43.53
2019-02-25T06:52:02.955Z,38.27
2019-02-25T06:53:38.908Z,39.63
2019-02-25T06:55:18.222Z,40.53
2019-02-25T06:56:54.111Z,39.23
2019-02-25T06:58:30.090Z,38.77
2019-02-25T07:00:13.482Z,38.67
2019-02-25T07:01:49.619Z,39.97
2019-02-25T07:03:25.586Z,35.67
2019-02-25T07:05:03.132Z,39.17
2019-02-25T07:06:56.818Z,41.23
2019-02-25T07:08:37.064Z,45.23
2019-02-25T07:10:14.818Z,39.63
2019-02-25T07:11:55.202Z,39.83
2019-02-25T07:13:48.025Z,48.93
2019-02-25T07:15:31.942Z,43.00
2019-02-25T07:17:09.572Z,38.90
2019-02-25T07:18:48.014Z,38.53
2019-02-25T07:20:31.551Z,37.23
2019-02-25T07:22:18.168Z,35.77
2019-02-25T07:23:58.399Z,39.73
2019-02-25T07:25:36.201Z,37.97
2019-02-25T07:27:16.843Z,38.27
2019-02-25T07:29:03.479Z,39.43
2019-02-25T07:30:50.450Z,34.63
2019-02-25T07:32:26.182Z,36.20
2019-02-25T07:34:12.209Z,37.07
2019-02-25T07:35:53.185Z,39.63
2019-02-25T07:37:44.327Z,39.70
2019-02-25T07:39:38.362Z,39.23
2019-02-25T07:41:15.871Z,43.97
2019-02-25T07:42:56.278Z,38.53
2019-02-25T07:44:50.343Z,40.37
2019-02-25T07:46:32.164Z,38.23
2019-02-25T07:48:12.869Z,40.80
2019-02-25T07:49:50.582Z,43.40
2019-02-25T07:51:36.701Z,41.70
2019-02-25T07:53:15.307Z,39.17
2019-02-25T07:54:53.881Z,44.27
2019-02-25T07:56:31.515Z,44.33
2019-02-25T07:58:12.239Z,50.33
2019-02-25T08:00:02.091Z,42.53
2019-02-25T08:01:56.025Z,45.40
2019-02-25T08:03:36.578Z,43.50
2019-02-25T08:05:17.094Z,43.23
2019-02-25T08:07:01.867Z,45.07
2019-02-25T08:08:39.648Z,44.20
2019-02-25T08:10:17.417Z,44.83
2019-02-25T08:11:55.091Z,41.97
2019-02-25T08:13:35.697Z,45.10
2019-02-25T08:15:31.801Z,43.30
2019-02-25T08:17:15.510Z,46.23
2019-02-25T08:19:03.661Z,44.80
2019-02-25T08:20:48.714Z,41.77
2019-02-25T08:22:32.166Z,45.13
2019-02-25T08:24:16.182Z,43.73
2019-02-25T08:25:53.932Z,46.50
2019-02-25T08:27:46.568Z,44.27
2019-02-25T08:29:26.895Z,48.10
2019-02-25T08:31:09.204Z,45.20
2019-02-25T08:32:47.229Z,42.73
2019-02-25T08:34:27.666Z,43.67
2019-02-25T08:36:46.138Z,41.60
2019-02-25T08:38:39.807Z,46.83
2019-02-25T08:40:38.198Z,45.27
2019-02-25T08:42:21.219Z,46.47
2019-02-25T08:43:56.999Z,45.77
2019-02-25T08:45:40.438Z,43.83
2019-02-25T08:47:27.222Z,45.07
2019-02-25T08:49:13.771Z,43.23
2019-02-25T08:50:49.840Z,46.33
2019-02-25T08:52:25.954Z,46.17
2019-02-25T08:54:02.150Z,44.27
2019-02-25T08:55:38.291Z,45.43
2019-02-25T08:57:14.586Z,44.77
2019-02-25T08:58:50.716Z,45.93
2019-02-25T09:00:26.857Z,46.73
2019-02-25T09:02:02.723Z,49.33
2019-02-25T09:03:38.931Z,46.53
2019-02-25T09:05:15.732Z,43.00
2019-02-25T09:06:51.865Z,46.53
2019-02-25T09:08:27.804Z,47.37
2019-02-25T09:10:04.927Z,52.80
2019-02-25T09:11:41.131Z,47.17
2019-02-25T09:13:17.334Z,52.43
2019-02-25T09:14:53.466Z,50.60
2019-02-25T09:16:29.523Z,54.43
2019-02-25T09:18:03.822Z,46.60
2019-02-25T09:19:39.852Z,46.60
2019-02-25T09:21:16.011Z,47.47
2019-02-25T09:22:51.950Z,48.20
2019-02-25T09:24:28.009Z,48.53
2019-02-25T09:26:05.522Z,51.93
2019-02-25T09:27:43.026Z,45.43
2019-02-25T09:29:19.075Z,48.57
2019-02-25T09:30:55.210Z,47.73
2019-02-25T09:32:31.278Z,45.33
2019-02-25T09:34:07.243Z,48.83
2019-02-25T09:35:44.678Z,47.83
2019-02-25T09:37:20.743Z,46.57
2019-02-25T09:38:56.921Z,42.43
2019-02-25T09:40:32.862Z,46.00
2019-02-25T09:42:09.077Z,44.13
2019-02-25T09:43:45.063Z,46.47
2019-02-25T09:45:21.249Z,43.30
2019-02-25T09:46:57.414Z,43.43
2019-02-25T09:48:33.381Z,46.10
2019-02-25T09:50:16.139Z,45.53
2019-02-25T09:51:52.171Z,44.53
2019-02-25T09:53:28.148Z,46.20
2019-02-25T09:55:04.670Z,44.13
2019-02-25T09:56:40.670Z,50.53
2019-02-25T09:58:16.736Z,49.93
2019-02-25T09:59:52.734Z,49.17
2019-02-25T10:01:30.043Z,49.73
2019-02-25T10:03:06.088Z,47.00
2019-02-25T10:04:42.161Z,54.37
2019-02-25T10:06:18.134Z,56.87
2019-02-25T10:07:54.166Z,53.00
2019-02-25T10:09:32.404Z,46.10
2019-02-25T10:11:08.070Z,44.63
2019-02-25T10:12:44.277Z,42.93
2019-02-25T10:14:20.483Z,47.77
2019-02-25T10:15:56.732Z,44.57
2019-02-25T10:17:32.799Z,49.37
2019-02-25T10:19:08.773Z,50.20
2019-02-25T10:20:44.882Z,43.03
2019-02-25T10:22:21.049Z,43.70
2019-02-25T10:23:57.027Z,42.37
2019-02-25T10:25:33.139Z,47.00
2019-02-25T10:27:10.500Z,49.20
2019-02-25T10:28:46.597Z,40.80
2019-02-25T10:30:23.002Z,39.57
2019-02-25T10:32:00.115Z,38.53
2019-02-25T10:33:36.570Z,41.13
2019-02-25T10:35:24.985Z,38.07
2019-02-25T10:37:01.471Z,39.13
2019-02-25T10:38:37.704Z,40.87
2019-02-25T10:40:17.282Z,36.37
2019-02-25T10:41:55.088Z,38.70
2019-02-25T10:43:31.905Z,36.47
2019-02-25T10:45:21.226Z,42.47
2019-02-25T10:46:57.266Z,43.10
2019-02-25T10:48:33.328Z,37.93
2019-02-25T10:50:12.849Z,42.87
2019-02-25T10:51:48.891Z,39.13
2019-02-25T10:53:24.862Z,42.10
2019-02-25T10:55:00.862Z,43.07
2019-02-25T10:56:41.788Z,40.23
2019-02-25T10:58:17.832Z,37.60
2019-02-25T10:59:53.869Z,40.27
2019-02-25T11:01:29.934Z,41.73
2019-02-25T11:03:06.446Z,41.47
2019-02-25T11:04:42.351Z,44.53
2019-02-25T11:06:18.434Z,45.93
2019-02-25T11:07:54.558Z,44.40
2019-02-25T11:09:35.420Z,39.00
2019-02-25T11:11:13.280Z,41.87
2019-02-25T11:12:49.432Z,36.47
2019-02-25T11:14:25.581Z,37.53
2019-02-25T11:16:01.739Z,39.53
2019-02-25T11:17:39.139Z,40.20
2019-02-25T11:19:15.047Z,36.53
2019-02-25T11:20:51.150Z,36.93
2019-02-25T11:22:27.484Z,37.53
2019-02-25T11:24:03.608Z,35.90
2019-02-25T11:25:39.644Z,36.07
2019-02-25T11:27:15.854Z,31.43
2019-02-25T11:28:51.901Z,32.93
2019-02-25T11:30:28.077Z,36.60
2019-02-25T11:32:04.634Z,39.17
2019-02-25T11:33:40.756Z,40.17
2019-02-25T11:35:17.169Z,36.87
2019-02-25T11:36:55.468Z,35.37
2019-02-25T11:38:34.743Z,35.00
2019-02-25T11:40:13.382Z,39.93
2019-02-25T11:41:49.483Z,39.27
2019-02-25T11:43:25.446Z,47.17
2019-02-25T11:45:04.314Z,42.63
2019-02-25T11:46:39.393Z,41.30
2019-02-25T11:48:15.528Z,37.17
2019-02-25T11:49:51.615Z,33.33
2019-02-25T11:51:27.974Z,37.33
2019-02-25T11:53:04.091Z,37.07
2019-02-25T11:54:40.236Z,36.53
2019-02-25T11:56:16.398Z,35.43
2019-02-25T11:57:52.605Z,38.67
2019-02-25T11:59:30.606Z,39.67
2019-02-25T12:01:08.050Z,36.67
2019-02-25T12:02:44.448Z,37.27
2019-02-25T12:04:21.879Z,42.10
2019-02-25T12:05:57.960Z,39.70
2019-02-25T12:07:34.045Z,41.33
2019-02-25T12:09:10.456Z,39.90
2019-02-25T12:10:46.673Z,36.90
2019-02-25T12:12:22.878Z,39.07
2019-02-25T12:13:59.029Z,40.10
2019-02-25T12:15:35.508Z,43.20
2019-02-25T12:17:11.484Z,39.60
2019-02-25T12:18:47.534Z,38.20
2019-02-25T12:20:23.680Z,40.57
2019-02-25T12:21:59.653Z,38.37
2019-02-25T12:23:35.692Z,40.07
2019-02-25T12:25:21.356Z,40.40
2019-02-25T12:26:57.332Z,42.93
2019-02-25T12:28:33.268Z,40.63
2019-02-25T12:30:22.958Z,38.23
2019-02-25T12:31:58.990Z,37.23
2019-02-25T12:33:35.294Z,39.17
2019-02-25T12:35:12.018Z,37.83
2019-02-25T12:36:49.444Z,42.53
2019-02-25T12:38:25.584Z,46.47
2019-02-25T12:40:01.764Z,44.80
2019-02-25T12:41:37.850Z,42.60
2019-02-25T12:43:14.023Z,37.10
2019-02-25T12:44:49.987Z,44.57
2019-02-25T12:46:26.097Z,44.67
2019-02-25T12:48:02.136Z,43.87
2019-02-25T12:49:38.233Z,37.17
2019-02-25T12:51:15.580Z,43.90
2019-02-25T12:52:51.455Z,42.93
2019-02-25T12:54:27.475Z,43.97
2019-02-25T12:56:03.420Z,40.47
2019-02-25T12:57:39.526Z,46.20
2019-02-25T12:59:15.641Z,46.10
2019-02-25T13:00:51.612Z,41.77
2019-02-25T13:02:27.680Z,42.77
2019-02-25T13:04:03.899Z,41.20
2019-02-25T13:05:39.872Z,45.30
2019-02-25T13:07:15.985Z,39.60
2019-02-25T13:08:51.956Z,40.90
2019-02-25T13:10:29.413Z,42.13
2019-02-25T13:12:05.509Z,40.73
2019-02-25T13:13:41.678Z,41.53
2019-02-25T13:15:23.807Z,44.17
2019-02-25T13:16:59.921Z,40.27
2019-02-25T13:18:36.004Z,43.33
2019-02-25T13:20:14.690Z,45.37
2019-02-25T13:21:50.806Z,40.83
2019-02-25T13:23:26.874Z,45.00
2019-02-25T13:25:03.654Z,47.00
2019-02-25T13:26:40.654Z,46.27
2019-02-25T13:28:16.694Z,46.27
2019-02-25T13:29:52.717Z,47.07
2019-02-25T13:31:29.042Z,46.47
2019-02-25T13:33:05.269Z,47.03
2019-02-25T13:34:41.410Z,51.43
2019-02-25T13:36:17.384Z,43.57
2019-02-25T13:37:53.472Z,50.17
2019-02-25T13:39:29.370Z,45.90
2019-02-25T13:41:06.889Z,46.57
2019-02-25T13:42:43.035Z,55.87
2019-02-25T13:44:20.446Z,46.03
2019-02-25T13:45:56.529Z,45.90
2019-02-25T13:47:33.898Z,46.73
2019-02-25T13:49:09.888Z,47.07
2019-02-25T13:50:45.827Z,53.80
2019-02-25T13:52:21.895Z,53.13
2019-02-25T13:53:58.008Z,62.17
2019-02-25T13:55:34.132Z,48.63
2019-02-25T13:57:10.378Z,52.17
2019-02-25T13:58:46.280Z,49.80
2019-02-25T14:00:24.158Z,48.07
2019-02-25T14:02:00.237Z,51.50
2019-02-25T14:03:36.482Z,51.97
2019-02-25T14:05:12.693Z,54.20
2019-02-25T14:06:48.692Z,55.27
2019-02-25T14:08:24.792Z,57.10
2019-02-25T14:10:00.861Z,61.30
2019-02-25T14:11:38.119Z,59.53
2019-02-25T14:13:14.325Z,56.97
2019-02-25T14:14:50.371Z,54.63
2019-02-25T14:16:26.780Z,56.63
2019-02-25T14:18:03.806Z,57.20
2019-02-25T14:19:39.843Z,54.20
2019-02-25T14:21:16.840Z,55.77
2019-02-25T14:22:54.443Z,57.53
2019-02-25T14:24:30.585Z,67.93
2019-02-25T14:26:06.660Z,73.90
2019-02-25T14:27:42.635Z,65.70
2019-02-25T14:29:18.985Z,65.13
2019-02-25T14:30:55.055Z,69.83
2019-02-25T14:32:31.258Z,60.40
2019-02-25T14:34:07.300Z,74.33
2019-02-25T14:35:46.956Z,64.03
2019-02-25T14:37:23.674Z,62.97
2019-02-25T14:39:02.242Z,68.60
2019-02-25T14:40:43.785Z,63.10
2019-02-25T14:42:18.876Z,68.33
2019-02-25T14:43:56.140Z,62.70
2019-02-25T14:45:34.389Z,59.13
2019-02-25T14:47:20.605Z,67.40
2019-02-25T14:48:52.712Z,65.77
2019-02-25T14:50:29.173Z,68.53
2019-02-25T14:52:05.308Z,69.10
2019-02-25T14:53:42.371Z,69.23
2019-02-25T14:55:19.519Z,67.70
2019-02-25T14:56:57.103Z,63.53
2019-02-25T14:58:36.213Z,71.77
2019-02-25T15:00:23.457Z,79.30
2019-02-25T15:02:01.493Z,87.73
2019-02-25T15:03:39.341Z,91.70
2019-02-25T15:05:19.328Z,89.43
2019-02-25T15:06:55.589Z,95.17
2019-02-25T15:08:31.626Z,89.03
2019-02-25T15:10:11.651Z,88.47
2019-02-25T15:11:47.683Z,94.53
2019-02-25T15:13:24.348Z,95.93
2019-02-25T15:15:03.067Z,85.83
2019-02-25T15:16:40.048Z,87.83
2019-02-25T15:18:17.610Z,86.40
2019-02-25T15:19:53.899Z,82.50
2019-02-25T15:21:30.089Z,81.07
2019-02-25T15:23:07.587Z,86.27
2019-02-25T15:24:44.399Z,104.60
2019-02-25T15:26:23.216Z,116.03
2019-02-25T15:28:02.555Z,133.30
2019-02-25T15:29:42.347Z,111.67
2019-02-25T15:31:18.256Z,103.63
2019-02-25T15:32:56.788Z,110.10
2019-02-25T15:34:33.895Z,116.50
2019-02-25T15:36:13.185Z,131.30
2019-02-25T15:37:50.730Z,134.33
2019-02-25T15:39:28.359Z,131.37
2019-02-25T15:41:04.984Z,135.60
2019-02-25T15:42:43.607Z,142.13
2019-02-25T15:44:19.726Z,118.17
2019-02-25T15:45:56.829Z,133.43
2019-02-25T15:47:32.933Z,145.53
2019-02-25T15:49:12.731Z,153.33
2019-02-25T15:50:55.282Z,158.23
2019-02-25T15:52:39.714Z,147.37
2019-02-25T15:54:10.164Z,129.63
2019-02-25T15:55:46.504Z,117.17
2019-02-25T15:57:24.540Z,121.77
2019-02-25T15:59:01.021Z,124.47
2019-02-25T16:00:38.493Z,112.13
2019-02-25T16:02:14.602Z,115.23
2019-02-25T16:03:50.807Z,110.87
2019-02-25T16:05:29.682Z,106.53
2019-02-25T16:07:08.844Z,101.03
2019-02-25T16:08:49.948Z,100.30
2019-02-25T16:10:26.044Z,100.73
2019-02-25T16:12:05.293Z,97.20
2019-02-25T16:13:42.432Z,112.63
2019-02-25T16:15:20.828Z,151.53
2019-02-25T16:16:57.291Z,181.53
2019-02-25T16:18:34.517Z,168.30
2019-02-25T16:20:17.561Z,121.47
2019-02-25T16:21:54.790Z,111.63
2019-02-25T16:23:34.139Z,89.53
2019-02-25T16:25:27.084Z,97.33
2019-02-25T16:27:04.629Z,94.30
2019-02-25T16:28:40.848Z,98.80
2019-02-25T16:30:21.425Z,93.57
2019-02-25T16:32:01.787Z,100.20
2019-02-25T16:33:38.540Z,103.17
2019-02-25T16:35:15.953Z,98.13
2019-02-25T16:36:54.223Z,102.60
2019-02-25T16:38:31.962Z,105.87
2019-02-25T16:40:18.612Z,101.30
2019-02-25T16:41:55.015Z,107.50
2019-02-25T16:43:32.519Z,116.00
2019-02-25T16:45:32.179Z,103.80
2019-02-25T16:47:04.710Z,102.33
2019-02-25T16:48:41.142Z,109.37
2019-02-25T16:50:18.693Z,112.87
2019-02-25T16:51:59.387Z,113.00
2019-02-25T16:53:38.742Z,124.10
2019-02-25T16:55:24.697Z,121.37
2019-02-25T16:57:00.370Z,131.77
2019-02-25T16:58:36.722Z,131.37
2019-02-25T17:00:27.826Z,117.33
2019-02-25T17:02:07.173Z,122.80
2019-02-25T17:03:44.331Z,113.60
2019-02-25T17:05:23.065Z,114.23
2019-02-25T17:07:00.162Z,108.40
2019-02-25T17:08:39.353Z,99.63
2019-02-25T17:10:27.103Z,90.70
2019-02-25T17:12:05.103Z,102.23
2019-02-25T17:13:41.541Z,101.17
2019-02-25T17:15:19.719Z,95.60
2019-02-25T17:16:57.008Z,104.30
2019-02-25T17:18:34.581Z,108.13
2019-02-25T17:20:16.370Z,106.77
2019-02-25T17:21:54.219Z,110.97
2019-02-25T17:23:32.167Z,184.30
2019-02-25T17:25:14.869Z,196.23
2019-02-25T17:26:51.076Z,273.57
2019-02-25T17:28:27.437Z,246.77
2019-02-25T17:30:04.435Z,183.37
2019-02-25T17:31:40.887Z,186.77
2019-02-25T17:33:17.551Z,227.30
2019-02-25T17:34:53.755Z,231.43
2019-02-25T17:36:29.922Z,214.93
2019-02-25T17:38:06.167Z,245.87
2019-02-25T17:39:43.790Z,413.40
2019-02-25T17:41:19.861Z,405.70
2019-02-25T17:42:56.424Z,433.27
2019-02-25T17:44:34.359Z,474.97
2019-02-25T17:46:11.665Z,426.27
2019-02-25T17:47:49.276Z,310.57
2019-02-25T17:49:26.679Z,277.03
2019-02-25T17:51:03.899Z,256.20
2019-02-25T17:52:42.114Z,184.80
2019-02-25T17:54:18.072Z,174.73
2019-02-25T17:55:57.227Z,179.07
2019-02-25T17:57:34.969Z,167.10
2019-02-25T17:59:12.862Z,175.20
2019-02-25T18:00:50.742Z,171.70
2019-02-25T18:02:26.926Z,152.90
2019-02-25T18:04:04.970Z,157.20
2019-02-25T18:05:43.259Z,161.57
2019-02-25T18:07:21.596Z,153.73
2019-02-25T18:08:59.470Z,173.97
2019-02-25T18:10:35.755Z,179.60
2019-02-25T18:12:12.394Z,159.60
2019-02-25T18:13:49.032Z,163.40
2019-02-25T18:15:33.933Z,148.57
2019-02-25T18:17:12.564Z,164.57
2019-02-25T18:18:51.987Z,144.43
2019-02-25T18:20:29.505Z,136.77
2019-02-25T18:22:07.050Z,124.83
2019-02-25T18:23:45.311Z,118.10
2019-02-25T18:25:23.089Z,122.40
2019-02-25T18:26:59.470Z,124.90
2019-02-25T18:28:37.410Z,131.03
2019-02-25T18:30:22.231Z,134.50
2019-02-25T18:31:58.773Z,137.30
2019-02-25T18:33:34.973Z,139.93
2019-02-25T18:35:12.254Z,130.53
2019-02-25T18:36:51.618Z,128.40
2019-02-25T18:38:32.181Z,116.47
2019-02-25T18:40:16.259Z,131.43
2019-02-25T18:41:55.128Z,150.63
2019-02-25T18:43:32.911Z,117.83
2019-02-25T18:45:20.779Z,116.30
2019-02-25T18:46:57.407Z,114.03
2019-02-25T18:48:33.545Z,112.53
2019-02-25T18:50:17.224Z,123.03
2019-02-25T18:51:51.917Z,105.47
2019-02-25T18:53:30.610Z,93.07
2019-02-25T18:55:14.915Z,105.97
2019-02-25T18:56:51.897Z,96.47
2019-02-25T18:58:30.532Z,101.63
2019-02-25T19:00:22.219Z,103.97
2019-02-25T19:01:59.556Z,93.23
2019-02-25T19:03:38.122Z,95.10
2019-02-25T19:05:14.764Z,94.10
2019-02-25T19:06:51.010Z,95.23
2019-02-25T19:08:29.081Z,95.90
2019-02-25T19:10:05.808Z,87.73
2019-02-25T19:11:42.861Z,90.90
2019-02-25T19:13:23.319Z,97.27
2019-02-25T19:15:02.490Z,84.77
2019-02-25T19:16:40.023Z,84.10
2019-02-25T19:18:17.695Z,84.03
2019-02-25T19:19:53.940Z,83.83
2019-02-25T19:21:34.452Z,73.30
2019-02-25T19:23:12.435Z,82.43
2019-02-25T19:24:50.843Z,76.07
2019-02-25T19:26:27.082Z,83.03
2019-02-25T19:28:03.496Z,87.53
2019-02-25T19:29:39.795Z,84.80
2019-02-25T19:31:16.020Z,86.33
2019-02-25T19:32:52.916Z,83.27
2019-02-25T19:34:29.382Z,81.70
2019-02-25T19:36:07.064Z,81.77
2019-02-25T19:37:44.424Z,78.90
2019-02-25T19:39:21.737Z,89.47
2019-02-25T19:40:59.847Z,85.20
2019-02-25T19:42:43.170Z,81.83
2019-02-25T19:44:21.288Z,86.47
2019-02-25T19:45:59.516Z,84.13
2019-02-25T19:47:37.761Z,88.97
2019-02-25T19:49:18.796Z,84.70
2019-02-25T19:50:59.503Z,88.13
2019-02-25T19:52:39.524Z,83.47
2019-02-25T19:54:18.485Z,89.73
2019-02-25T19:55:56.512Z,76.80
2019-02-25T19:57:56.633Z,89.00
2019-02-25T19:59:43.349Z,89.93
2019-02-25T20:01:30.180Z,92.53
2019-02-25T20:03:16.878Z,91.57
2019-02-25T20:05:00.582Z,89.07
2019-02-25T20:06:38.138Z,94.83
2019-02-25T20:08:14.910Z,93.33
2019-02-25T20:09:53.101Z,92.57
2019-02-25T20:11:32.172Z,89.47
2019-02-25T20:13:08.832Z,91.30
2019-02-25T20:14:47.042Z,90.73
2019-02-25T20:16:27.594Z,99.80
2019-02-25T20:18:01.556Z,102.40
2019-02-25T20:19:39.204Z,95.77
2019-02-25T20:21:16.301Z,92.10
2019-02-25T20:22:52.834Z,94.30
2019-02-25T20:24:29.415Z,92.63
2019-02-25T20:26:11.322Z,94.83
2019-02-25T20:27:47.297Z,99.90
2019-02-25T20:29:23.371Z,89.90
2019-02-25T20:30:59.561Z,81.47
2019-02-25T20:32:38.568Z,81.70
2019-02-25T20:34:18.517Z,79.27
2019-02-25T20:35:55.815Z,94.07
2019-02-25T20:37:31.435Z,78.60
2019-02-25T20:39:09.037Z,85.90
2019-02-25T20:40:49.049Z,82.33
2019-02-25T20:42:24.461Z,84.13
2019-02-25T20:44:03.305Z,78.60
2019-02-25T20:45:43.139Z,85.43
2019-02-25T20:47:19.317Z,82.23
2019-02-25T20:48:56.111Z,82.67
2019-02-25T20:50:33.311Z,86.17
2019-02-25T20:52:09.417Z,87.70
2019-02-25T20:53:48.331Z,84.27